sensor_id;sensor_type;location;lat;lon;timestamp;P1;durP1;ratioP1;P2;durP2;ratioP2
52508;SDS011;38420;53.150;6.370;2023-03-31T00:01:34;34.13;;;6.25;;
52508;SDS011;38420;53.150;6.370;2023-03-31T00:04:00;33.95;;;6.15;;
52508;SDS011;38420;53.150;6.370;2023-03-31T00:06:30;36.35;;;6.07;;
52508;SDS011;38420;53.150;6.370;2023-03-31T00:09:03;35.35;;;6.47;;
52508;SDS011;38420;53.150;6.370;2023-03-31T00:11:30;38.92;;;7.00;;
52508;SDS011;38420;53.150;6.370;2023-03-31T00:13:55;34.08;;;6.60;;
52508;SDS011;38420;53.150;6.370;2023-03-31T00:16:21;33.63;;;6.03;;
52508;SDS011;38420;53.150;6.370;2023-03-31T00:18:47;36.15;;;6.47;;
52508;SDS011;38420;53.150;6.370;2023-03-31T00:21:19;42.22;;;6.75;;
52508;SDS011;38420;53.150;6.370;2023-03-31T00:23:52;35.60;;;6.30;;
52508;SDS011;38420;53.150;6.370;2023-03-31T00:26:19;39.63;;;7.15;;
52508;SDS011;38420;53.150;6.370;2023-03-31T00:28:46;34.50;;;6.80;;
52508;SDS011;38420;53.150;6.370;2023-03-31T00:31:13;38.33;;;7.03;;
52508;SDS011;38420;53.150;6.370;2023-03-31T00:33:38;36.75;;;5.95;;
52508;SDS011;38420;53.150;6.370;2023-03-31T00:36:04;31.00;;;7.05;;
52508;SDS011;38420;53.150;6.370;2023-03-31T00:38:33;37.42;;;7.15;;
52508;SDS011;38420;53.150;6.370;2023-03-31T00:41:00;33.10;;;5.03;;
52508;SDS011;38420;53.150;6.370;2023-03-31T00:43:31;40.80;;;6.22;;
52508;SDS011;38420;53.150;6.370;2023-03-31T00:46:00;36.15;;;6.82;;
52508;SDS011;38420;53.150;6.370;2023-03-31T00:48:50;33.78;;;6.45;;
52508;SDS011;38420;53.150;6.370;2023-03-31T00:51:21;35.30;;;6.75;;
52508;SDS011;38420;53.150;6.370;2023-03-31T00:53:52;29.27;;;5.72;;
52508;SDS011;38420;53.150;6.370;2023-03-31T00:56:24;27.85;;;5.97;;
52508;SDS011;38420;53.150;6.370;2023-03-31T00:58:52;32.80;;;5.88;;
52508;SDS011;38420;53.150;6.370;2023-03-31T01:03:50;35.15;;;6.15;;
52508;SDS011;38420;53.150;6.370;2023-03-31T01:06:17;35.78;;;6.50;;
52508;SDS011;38420;53.150;6.370;2023-03-31T01:08:47;37.38;;;7.57;;
52508;SDS011;38420;53.150;6.370;2023-03-31T01:11:16;34.63;;;6.90;;
52508;SDS011;38420;53.150;6.370;2023-03-31T01:13:44;33.35;;;6.93;;
52508;SDS011;38420;53.150;6.370;2023-03-31T01:16:14;35.67;;;6.68;;
52508;SDS011;38420;53.150;6.370;2023-03-31T01:18:40;32.60;;;6.63;;
52508;SDS011;38420;53.150;6.370;2023-03-31T01:45:53;24.55;;;5.20;;
52508;SDS011;38420;53.150;6.370;2023-03-31T01:51:21;23.63;;;4.60;;
52508;SDS011;38420;53.150;6.370;2023-03-31T01:54:14;28.42;;;5.25;;
52508;SDS011;38420;53.150;6.370;2023-03-31T01:59:25;30.25;;;5.55;;
52508;SDS011;38420;53.150;6.370;2023-03-31T02:02:00;34.50;;;7.47;;
52508;SDS011;38420;53.150;6.370;2023-03-31T02:04:31;23.30;;;5.00;;
52508;SDS011;38420;53.150;6.370;2023-03-31T02:07:04;28.55;;;5.45;;
52508;SDS011;38420;53.150;6.370;2023-03-31T02:09:37;28.45;;;5.22;;
52508;SDS011;38420;53.150;6.370;2023-03-31T02:12:06;28.27;;;5.72;;
52508;SDS011;38420;53.150;6.370;2023-03-31T02:14:35;33.83;;;6.13;;
52508;SDS011;38420;53.150;6.370;2023-03-31T02:17:03;24.08;;;5.63;;
52508;SDS011;38420;53.150;6.370;2023-03-31T02:19:37;29.58;;;6.15;;
52508;SDS011;38420;53.150;6.370;2023-03-31T02:22:05;27.85;;;5.72;;
52508;SDS011;38420;53.150;6.370;2023-03-31T02:24:33;23.02;;;5.20;;
52508;SDS011;38420;53.150;6.370;2023-03-31T02:29:47;25.77;;;4.47;;
52508;SDS011;38420;53.150;6.370;2023-03-31T02:32:15;27.60;;;4.95;;
52508;SDS011;38420;53.150;6.370;2023-03-31T02:34:52;21.63;;;4.80;;
52508;SDS011;38420;53.150;6.370;2023-03-31T02:37:19;31.33;;;6.35;;
52508;SDS011;38420;53.150;6.370;2023-03-31T02:39:45;34.08;;;5.45;;
52508;SDS011;38420;53.150;6.370;2023-03-31T02:42:12;29.63;;;5.43;;
52508;SDS011;38420;53.150;6.370;2023-03-31T02:44:38;25.58;;;4.55;;
52508;SDS011;38420;53.150;6.370;2023-03-31T02:47:05;31.65;;;6.50;;
52508;SDS011;38420;53.150;6.370;2023-03-31T02:49:33;26.33;;;5.72;;
52508;SDS011;38420;53.150;6.370;2023-03-31T02:52:15;25.92;;;5.03;;
52508;SDS011;38420;53.150;6.370;2023-03-31T02:55:02;32.50;;;4.70;;
52508;SDS011;38420;53.150;6.370;2023-03-31T03:03:36;30.48;;;5.35;;
52508;SDS011;38420;53.150;6.370;2023-03-31T03:11:45;22.05;;;4.63;;
52508;SDS011;38420;53.150;6.370;2023-03-31T03:14:31;19.45;;;4.97;;
52508;SDS011;38420;53.150;6.370;2023-03-31T03:17:08;26.65;;;5.72;;
52508;SDS011;38420;53.150;6.370;2023-03-31T03:19:37;27.08;;;4.82;;
52508;SDS011;38420;53.150;6.370;2023-03-31T03:22:06;28.20;;;4.88;;
52508;SDS011;38420;53.150;6.370;2023-03-31T03:24:32;27.27;;;4.90;;
52508;SDS011;38420;53.150;6.370;2023-03-31T03:26:58;23.90;;;4.57;;
52508;SDS011;38420;53.150;6.370;2023-03-31T03:29:24;25.38;;;5.38;;
52508;SDS011;38420;53.150;6.370;2023-03-31T03:31:51;16.52;;;4.45;;
52508;SDS011;38420;53.150;6.370;2023-03-31T03:34:17;27.60;;;5.03;;
52508;SDS011;38420;53.150;6.370;2023-03-31T03:36:44;25.27;;;5.30;;
52508;SDS011;38420;53.150;6.370;2023-03-31T03:39:10;21.15;;;4.05;;
52508;SDS011;38420;53.150;6.370;2023-03-31T03:41:36;23.25;;;4.18;;
52508;SDS011;38420;53.150;6.370;2023-03-31T03:44:02;23.48;;;5.00;;
52508;SDS011;38420;53.150;6.370;2023-03-31T03:46:28;25.13;;;4.78;;
52508;SDS011;38420;53.150;6.370;2023-03-31T03:48:54;23.85;;;5.38;;
52508;SDS011;38420;53.150;6.370;2023-03-31T03:51:20;28.75;;;5.07;;
52508;SDS011;38420;53.150;6.370;2023-03-31T03:53:46;22.05;;;4.45;;
52508;SDS011;38420;53.150;6.370;2023-03-31T03:56:11;18.27;;;5.10;;
52508;SDS011;38420;53.150;6.370;2023-03-31T03:58:37;19.27;;;4.90;;
52508;SDS011;38420;53.150;6.370;2023-03-31T04:01:03;21.73;;;4.75;;
52508;SDS011;38420;53.150;6.370;2023-03-31T04:03:29;21.05;;;4.53;;
52508;SDS011;38420;53.150;6.370;2023-03-31T04:05:55;16.60;;;4.63;;
52508;SDS011;38420;53.150;6.370;2023-03-31T04:08:21;18.58;;;5.68;;
52508;SDS011;38420;53.150;6.370;2023-03-31T04:10:47;21.83;;;5.47;;
52508;SDS011;38420;53.150;6.370;2023-03-31T04:13:14;22.08;;;5.80;;
52508;SDS011;38420;53.150;6.370;2023-03-31T04:15:40;18.48;;;5.45;;
52508;SDS011;38420;53.150;6.370;2023-03-31T04:18:07;22.17;;;5.78;;
52508;SDS011;38420;53.150;6.370;2023-03-31T04:20:35;22.15;;;5.45;;
52508;SDS011;38420;53.150;6.370;2023-03-31T04:23:01;23.25;;;6.57;;
52508;SDS011;38420;53.150;6.370;2023-03-31T04:25:29;25.85;;;7.13;;
52508;SDS011;38420;53.150;6.370;2023-03-31T04:27:55;24.55;;;6.68;;
52508;SDS011;38420;53.150;6.370;2023-03-31T04:30:22;18.67;;;6.30;;
52508;SDS011;38420;53.150;6.370;2023-03-31T04:32:55;27.42;;;7.43;;
52508;SDS011;38420;53.150;6.370;2023-03-31T04:35:23;29.77;;;7.68;;
52508;SDS011;38420;53.150;6.370;2023-03-31T04:37:50;19.90;;;8.15;;
52508;SDS011;38420;53.150;6.370;2023-03-31T04:40:22;21.60;;;7.32;;
52508;SDS011;38420;53.150;6.370;2023-03-31T04:42:49;24.10;;;8.57;;
52508;SDS011;38420;53.150;6.370;2023-03-31T04:45:15;32.03;;;10.25;;
52508;SDS011;38420;53.150;6.370;2023-03-31T04:47:41;23.83;;;8.70;;
52508;SDS011;38420;53.150;6.370;2023-03-31T04:50:07;25.52;;;9.00;;
52508;SDS011;38420;53.150;6.370;2023-03-31T04:52:34;23.35;;;9.00;;
52508;SDS011;38420;53.150;6.370;2023-03-31T04:55:01;31.00;;;10.15;;
52508;SDS011;38420;53.150;6.370;2023-03-31T04:57:27;33.75;;;10.80;;
52508;SDS011;38420;53.150;6.370;2023-03-31T04:59:53;26.27;;;9.43;;
52508;SDS011;38420;53.150;6.370;2023-03-31T05:02:18;25.95;;;9.85;;
52508;SDS011;38420;53.150;6.370;2023-03-31T05:04:50;26.98;;;10.10;;
52508;SDS011;38420;53.150;6.370;2023-03-31T05:07:16;23.35;;;9.55;;
52508;SDS011;38420;53.150;6.370;2023-03-31T05:09:43;26.08;;;9.98;;
52508;SDS011;38420;53.150;6.370;2023-03-31T05:12:09;25.42;;;9.98;;
52508;SDS011;38420;53.150;6.370;2023-03-31T05:14:34;24.85;;;9.80;;
52508;SDS011;38420;53.150;6.370;2023-03-31T05:17:00;26.10;;;10.32;;
52508;SDS011;38420;53.150;6.370;2023-03-31T05:19:26;24.92;;;9.60;;
52508;SDS011;38420;53.150;6.370;2023-03-31T05:21:52;27.10;;;10.55;;
52508;SDS011;38420;53.150;6.370;2023-03-31T05:24:17;22.23;;;10.88;;
52508;SDS011;38420;53.150;6.370;2023-03-31T05:26:43;25.63;;;9.95;;
52508;SDS011;38420;53.150;6.370;2023-03-31T05:29:16;21.15;;;9.27;;
52508;SDS011;38420;53.150;6.370;2023-03-31T05:31:42;29.35;;;10.15;;
52508;SDS011;38420;53.150;6.370;2023-03-31T05:34:08;26.05;;;10.07;;
52508;SDS011;38420;53.150;6.370;2023-03-31T05:36:33;25.90;;;10.32;;
52508;SDS011;38420;53.150;6.370;2023-03-31T05:38:59;28.60;;;10.00;;
52508;SDS011;38420;53.150;6.370;2023-03-31T05:41:25;29.58;;;10.50;;
52508;SDS011;38420;53.150;6.370;2023-03-31T05:43:50;21.52;;;9.63;;
52508;SDS011;38420;53.150;6.370;2023-03-31T05:46:16;23.10;;;9.52;;
52508;SDS011;38420;53.150;6.370;2023-03-31T05:48:42;25.40;;;9.38;;
52508;SDS011;38420;53.150;6.370;2023-03-31T05:51:08;27.13;;;10.40;;
52508;SDS011;38420;53.150;6.370;2023-03-31T05:53:34;26.23;;;9.68;;
52508;SDS011;38420;53.150;6.370;2023-03-31T05:56:01;20.08;;;8.77;;
52508;SDS011;38420;53.150;6.370;2023-03-31T05:58:29;23.50;;;8.60;;
52508;SDS011;38420;53.150;6.370;2023-03-31T06:03:34;20.48;;;8.00;;
52508;SDS011;38420;53.150;6.370;2023-03-31T06:06:02;21.33;;;8.52;;
52508;SDS011;38420;53.150;6.370;2023-03-31T06:08:29;19.90;;;7.43;;
52508;SDS011;38420;53.150;6.370;2023-03-31T06:10:56;22.15;;;7.47;;
52508;SDS011;38420;53.150;6.370;2023-03-31T06:13:22;17.58;;;7.25;;
52508;SDS011;38420;53.150;6.370;2023-03-31T06:15:54;14.77;;;7.00;;
52508;SDS011;38420;53.150;6.370;2023-03-31T06:18:22;17.40;;;7.10;;
52508;SDS011;38420;53.150;6.370;2023-03-31T06:20:48;17.02;;;7.45;;
52508;SDS011;38420;53.150;6.370;2023-03-31T06:23:14;22.77;;;7.50;;
52508;SDS011;38420;53.150;6.370;2023-03-31T06:25:40;17.08;;;7.28;;
52508;SDS011;38420;53.150;6.370;2023-03-31T06:28:06;22.35;;;8.43;;
52508;SDS011;38420;53.150;6.370;2023-03-31T06:30:31;17.40;;;6.55;;
52508;SDS011;38420;53.150;6.370;2023-03-31T06:32:57;25.25;;;7.55;;
52508;SDS011;38420;53.150;6.370;2023-03-31T06:35:23;20.52;;;7.60;;
52508;SDS011;38420;53.150;6.370;2023-03-31T06:37:48;18.00;;;6.72;;
52508;SDS011;38420;53.150;6.370;2023-03-31T06:40:14;14.07;;;7.30;;
52508;SDS011;38420;53.150;6.370;2023-03-31T06:42:40;17.70;;;7.25;;
52508;SDS011;38420;53.150;6.370;2023-03-31T06:45:05;20.27;;;7.70;;
52508;SDS011;38420;53.150;6.370;2023-03-31T06:47:31;17.15;;;7.18;;
52508;SDS011;38420;53.150;6.370;2023-03-31T06:49:57;14.02;;;6.60;;
52508;SDS011;38420;53.150;6.370;2023-03-31T06:52:23;16.63;;;6.47;;
52508;SDS011;38420;53.150;6.370;2023-03-31T06:54:48;14.40;;;5.75;;
52508;SDS011;38420;53.150;6.370;2023-03-31T06:57:14;17.48;;;6.90;;
52508;SDS011;38420;53.150;6.370;2023-03-31T06:59:39;16.27;;;6.45;;
52508;SDS011;38420;53.150;6.370;2023-03-31T07:02:05;11.25;;;5.82;;
52508;SDS011;38420;53.150;6.370;2023-03-31T07:04:31;12.18;;;5.68;;
52508;SDS011;38420;53.150;6.370;2023-03-31T07:06:57;16.90;;;6.45;;
52508;SDS011;38420;53.150;6.370;2023-03-31T07:09:23;12.23;;;5.57;;
52508;SDS011;38420;53.150;6.370;2023-03-31T07:11:49;12.45;;;5.65;;
52508;SDS011;38420;53.150;6.370;2023-03-31T07:14:14;14.23;;;5.97;;
52508;SDS011;38420;53.150;6.370;2023-03-31T07:16:40;12.80;;;5.95;;
52508;SDS011;38420;53.150;6.370;2023-03-31T07:19:06;12.73;;;6.30;;
52508;SDS011;38420;53.150;6.370;2023-03-31T07:21:35;18.20;;;6.50;;
52508;SDS011;38420;53.150;6.370;2023-03-31T07:24:01;13.32;;;6.22;;
52508;SDS011;38420;53.150;6.370;2023-03-31T07:26:27;17.55;;;6.93;;
52508;SDS011;38420;53.150;6.370;2023-03-31T07:28:53;15.93;;;7.40;;
52508;SDS011;38420;53.150;6.370;2023-03-31T07:31:20;13.75;;;6.75;;
52508;SDS011;38420;53.150;6.370;2023-03-31T07:33:46;18.60;;;7.38;;
52508;SDS011;38420;53.150;6.370;2023-03-31T07:36:12;12.15;;;6.95;;
52508;SDS011;38420;53.150;6.370;2023-03-31T07:38:38;13.88;;;6.68;;
52508;SDS011;38420;53.150;6.370;2023-03-31T07:41:05;16.67;;;7.30;;
52508;SDS011;38420;53.150;6.370;2023-03-31T07:43:34;16.00;;;6.97;;
52508;SDS011;38420;53.150;6.370;2023-03-31T07:46:00;18.05;;;7.80;;
52508;SDS011;38420;53.150;6.370;2023-03-31T07:48:25;18.50;;;7.78;;
52508;SDS011;38420;53.150;6.370;2023-03-31T07:50:53;14.05;;;6.90;;
52508;SDS011;38420;53.150;6.370;2023-03-31T07:53:18;12.57;;;7.32;;
52508;SDS011;38420;53.150;6.370;2023-03-31T07:55:45;11.15;;;6.43;;
52508;SDS011;38420;53.150;6.370;2023-03-31T07:58:11;11.98;;;5.90;;
52508;SDS011;38420;53.150;6.370;2023-03-31T08:00:37;12.50;;;6.10;;
52508;SDS011;38420;53.150;6.370;2023-03-31T08:03:02;12.65;;;6.40;;
52508;SDS011;38420;53.150;6.370;2023-03-31T08:05:28;14.15;;;6.22;;
52508;SDS011;38420;53.150;6.370;2023-03-31T08:07:54;12.73;;;6.55;;
52508;SDS011;38420;53.150;6.370;2023-03-31T08:10:21;15.43;;;6.47;;
52508;SDS011;38420;53.150;6.370;2023-03-31T08:12:49;12.75;;;5.95;;
52508;SDS011;38420;53.150;6.370;2023-03-31T08:15:14;16.90;;;6.13;;
52508;SDS011;38420;53.150;6.370;2023-03-31T08:17:40;13.07;;;5.90;;
52508;SDS011;38420;53.150;6.370;2023-03-31T08:20:06;16.10;;;6.32;;
52508;SDS011;38420;53.150;6.370;2023-03-31T08:22:34;12.32;;;6.35;;
52508;SDS011;38420;53.150;6.370;2023-03-31T08:25:00;14.18;;;6.15;;
52508;SDS011;38420;53.150;6.370;2023-03-31T08:27:26;14.30;;;5.43;;
52508;SDS011;38420;53.150;6.370;2023-03-31T08:29:52;13.00;;;6.72;;
52508;SDS011;38420;53.150;6.370;2023-03-31T08:32:20;13.18;;;5.72;;
52508;SDS011;38420;53.150;6.370;2023-03-31T08:34:47;12.30;;;5.32;;
52508;SDS011;38420;53.150;6.370;2023-03-31T08:37:13;13.13;;;6.18;;
52508;SDS011;38420;53.150;6.370;2023-03-31T08:39:38;13.82;;;5.97;;
52508;SDS011;38420;53.150;6.370;2023-03-31T08:42:14;14.00;;;5.10;;
52508;SDS011;38420;53.150;6.370;2023-03-31T08:44:54;15.60;;;6.65;;
52508;SDS011;38420;53.150;6.370;2023-03-31T08:47:25;16.20;;;5.80;;
52508;SDS011;38420;53.150;6.370;2023-03-31T08:49:55;11.98;;;5.13;;
52508;SDS011;38420;53.150;6.370;2023-03-31T08:52:24;16.23;;;5.75;;
52508;SDS011;38420;53.150;6.370;2023-03-31T08:55:00;13.20;;;5.40;;
52508;SDS011;38420;53.150;6.370;2023-03-31T08:57:39;15.95;;;6.63;;
52508;SDS011;38420;53.150;6.370;2023-03-31T09:00:16;14.93;;;5.40;;
52508;SDS011;38420;53.150;6.370;2023-03-31T09:03:04;13.95;;;6.43;;
52508;SDS011;38420;53.150;6.370;2023-03-31T09:08:47;18.10;;;6.78;;
52508;SDS011;38420;53.150;6.370;2023-03-31T09:11:25;14.65;;;6.05;;
52508;SDS011;38420;53.150;6.370;2023-03-31T09:14:01;15.02;;;5.60;;
52508;SDS011;38420;53.150;6.370;2023-03-31T09:19:49;18.20;;;7.28;;
52508;SDS011;38420;53.150;6.370;2023-03-31T09:22:18;14.63;;;6.75;;
52508;SDS011;38420;53.150;6.370;2023-03-31T09:27:40;14.90;;;5.82;;
52508;SDS011;38420;53.150;6.370;2023-03-31T09:30:12;16.27;;;6.43;;
52508;SDS011;38420;53.150;6.370;2023-03-31T09:32:44;23.10;;;7.57;;
52508;SDS011;38420;53.150;6.370;2023-03-31T09:35:20;19.33;;;6.57;;
52508;SDS011;38420;53.150;6.370;2023-03-31T09:37:49;16.67;;;7.07;;
52508;SDS011;38420;53.150;6.370;2023-03-31T09:40:20;16.42;;;6.70;;
52508;SDS011;38420;53.150;6.370;2023-03-31T09:42:50;15.65;;;7.22;;
52508;SDS011;38420;53.150;6.370;2023-03-31T09:45:21;15.07;;;6.30;;
52508;SDS011;38420;53.150;6.370;2023-03-31T09:47:50;17.48;;;6.50;;
52508;SDS011;38420;53.150;6.370;2023-03-31T09:50:21;14.02;;;6.13;;
52508;SDS011;38420;53.150;6.370;2023-03-31T09:57:50;11.75;;;5.55;;
52508;SDS011;38420;53.150;6.370;2023-03-31T10:00:18;10.85;;;5.00;;
52508;SDS011;38420;53.150;6.370;2023-03-31T10:02:49;14.13;;;5.70;;
52508;SDS011;38420;53.150;6.370;2023-03-31T10:05:32;8.43;;;4.80;;
52508;SDS011;38420;53.150;6.370;2023-03-31T10:13:18;9.00;;;4.82;;
52508;SDS011;38420;53.150;6.370;2023-03-31T10:15:49;7.40;;;4.67;;
52508;SDS011;38420;53.150;6.370;2023-03-31T10:18:18;13.10;;;5.03;;
52508;SDS011;38420;53.150;6.370;2023-03-31T10:20:48;11.50;;;4.85;;
52508;SDS011;38420;53.150;6.370;2023-03-31T10:23:26;9.13;;;5.50;;
52508;SDS011;38420;53.150;6.370;2023-03-31T10:25:54;27.98;;;19.83;;
52508;SDS011;38420;53.150;6.370;2023-03-31T10:28:20;26.85;;;15.18;;
52508;SDS011;38420;53.150;6.370;2023-03-31T10:30:53;16.08;;;5.97;;
52508;SDS011;38420;53.150;6.370;2023-03-31T10:33:23;9.50;;;5.40;;
52508;SDS011;38420;53.150;6.370;2023-03-31T10:35:54;12.18;;;5.93;;
52508;SDS011;38420;53.150;6.370;2023-03-31T10:38:24;10.30;;;6.03;;
52508;SDS011;38420;53.150;6.370;2023-03-31T10:40:57;11.32;;;5.70;;
52508;SDS011;38420;53.150;6.370;2023-03-31T10:43:42;9.77;;;5.43;;
52508;SDS011;38420;53.150;6.370;2023-03-31T10:46:13;10.95;;;5.25;;
52508;SDS011;38420;53.150;6.370;2023-03-31T10:48:39;11.43;;;5.25;;
52508;SDS011;38420;53.150;6.370;2023-03-31T10:53:51;8.70;;;4.43;;
52508;SDS011;38420;53.150;6.370;2023-03-31T10:56:41;12.57;;;4.90;;
52508;SDS011;38420;53.150;6.370;2023-03-31T11:13:20;9.60;;;4.63;;
52508;SDS011;38420;53.150;6.370;2023-03-31T11:16:02;12.57;;;4.82;;
52508;SDS011;38420;53.150;6.370;2023-03-31T11:30:17;11.10;;;4.30;;
52508;SDS011;38420;53.150;6.370;2023-03-31T11:32:55;8.88;;;3.70;;
52508;SDS011;38420;53.150;6.370;2023-03-31T11:35:37;9.63;;;3.88;;
52508;SDS011;38420;53.150;6.370;2023-03-31T11:43:34;13.88;;;4.43;;
52508;SDS011;38420;53.150;6.370;2023-03-31T11:49:22;8.23;;;3.80;;
52508;SDS011;38420;53.150;6.370;2023-03-31T11:52:02;15.25;;;4.40;;
52508;SDS011;38420;53.150;6.370;2023-03-31T11:57:28;10.43;;;3.10;;
52508;SDS011;38420;53.150;6.370;2023-03-31T12:00:15;11.20;;;3.30;;
52508;SDS011;38420;53.150;6.370;2023-03-31T12:03:05;13.60;;;3.60;;
52508;SDS011;38420;53.150;6.370;2023-03-31T12:05:38;9.10;;;3.28;;
52508;SDS011;38420;53.150;6.370;2023-03-31T12:08:11;8.43;;;3.38;;
52508;SDS011;38420;53.150;6.370;2023-03-31T12:10:42;10.55;;;4.32;;
52508;SDS011;38420;53.150;6.370;2023-03-31T12:13:21;9.23;;;3.45;;
52508;SDS011;38420;53.150;6.370;2023-03-31T12:21:30;10.10;;;4.18;;
52508;SDS011;38420;53.150;6.370;2023-03-31T12:23:59;15.25;;;5.00;;
52508;SDS011;38420;53.150;6.370;2023-03-31T12:29:03;13.18;;;5.05;;
52508;SDS011;38420;53.150;6.370;2023-03-31T12:31:51;11.18;;;4.28;;
52508;SDS011;38420;53.150;6.370;2023-03-31T12:34:20;11.48;;;4.55;;
52508;SDS011;38420;53.150;6.370;2023-03-31T12:39:39;13.00;;;3.95;;
52508;SDS011;38420;53.150;6.370;2023-03-31T12:42:37;17.95;;;5.18;;
52508;SDS011;38420;53.150;6.370;2023-03-31T12:56:21;11.23;;;4.50;;
52508;SDS011;38420;53.150;6.370;2023-03-31T12:58:47;11.23;;;4.93;;
52508;SDS011;38420;53.150;6.370;2023-03-31T13:01:19;14.85;;;4.60;;
52508;SDS011;38420;53.150;6.370;2023-03-31T13:11:37;9.82;;;4.25;;
52508;SDS011;38420;53.150;6.370;2023-03-31T13:19:44;13.82;;;3.85;;
52508;SDS011;38420;53.150;6.370;2023-03-31T13:27:53;16.90;;;3.97;;
52508;SDS011;38420;53.150;6.370;2023-03-31T13:33:04;8.35;;;3.25;;
52508;SDS011;38420;53.150;6.370;2023-03-31T13:35:37;11.68;;;3.78;;
52508;SDS011;38420;53.150;6.370;2023-03-31T13:38:21;14.20;;;3.78;;
52508;SDS011;38420;53.150;6.370;2023-03-31T14:07:19;8.23;;;2.35;;
52508;SDS011;38420;53.150;6.370;2023-03-31T14:10:20;57.35;;;45.15;;
52508;SDS011;38420;53.150;6.370;2023-03-31T14:15:55;8.32;;;3.00;;
52508;SDS011;38420;53.150;6.370;2023-03-31T14:18:27;7.82;;;2.03;;
52508;SDS011;38420;53.150;6.370;2023-03-31T14:20:58;9.57;;;2.55;;
52508;SDS011;38420;53.150;6.370;2023-03-31T14:26:20;7.95;;;4.60;;
52508;SDS011;38420;53.150;6.370;2023-03-31T14:32:03;7.82;;;3.13;;
52508;SDS011;38420;53.150;6.370;2023-03-31T14:34:34;10.43;;;2.38;;
52508;SDS011;38420;53.150;6.370;2023-03-31T14:37:04;8.10;;;3.15;;
52508;SDS011;38420;53.150;6.370;2023-03-31T14:39:34;7.53;;;1.98;;
52508;SDS011;38420;53.150;6.370;2023-03-31T14:42:05;5.15;;;1.55;;
52508;SDS011;38420;53.150;6.370;2023-03-31T14:44:40;9.15;;;2.15;;
52508;SDS011;38420;53.150;6.370;2023-03-31T14:47:19;6.18;;;1.30;;
52508;SDS011;38420;53.150;6.370;2023-03-31T14:49:47;6.40;;;1.70;;
52508;SDS011;38420;53.150;6.370;2023-03-31T14:52:22;5.15;;;1.73;;
52508;SDS011;38420;53.150;6.370;2023-03-31T14:54:48;4.65;;;1.55;;
52508;SDS011;38420;53.150;6.370;2023-03-31T14:57:18;6.95;;;1.90;;
52508;SDS011;38420;53.150;6.370;2023-03-31T14:59:50;8.55;;;2.00;;
52508;SDS011;38420;53.150;6.370;2023-03-31T15:02:36;8.43;;;3.72;;
52508;SDS011;38420;53.150;6.370;2023-03-31T15:05:12;5.47;;;1.73;;
52508;SDS011;38420;53.150;6.370;2023-03-31T15:07:55;4.47;;;1.60;;
52508;SDS011;38420;53.150;6.370;2023-03-31T15:10:22;6.70;;;1.50;;
52508;SDS011;38420;53.150;6.370;2023-03-31T15:12:48;4.60;;;1.33;;
52508;SDS011;38420;53.150;6.370;2023-03-31T15:15:15;4.25;;;1.77;;
52508;SDS011;38420;53.150;6.370;2023-03-31T15:17:43;7.18;;;1.20;;
52508;SDS011;38420;53.150;6.370;2023-03-31T15:20:23;5.25;;;1.10;;
52508;SDS011;38420;53.150;6.370;2023-03-31T15:22:49;3.78;;;1.20;;
52508;SDS011;38420;53.150;6.370;2023-03-31T15:25:15;6.45;;;1.73;;
52508;SDS011;38420;53.150;6.370;2023-03-31T15:27:46;29.52;;;20.95;;
52508;SDS011;38420;53.150;6.370;2023-03-31T15:30:35;7.03;;;1.83;;
52508;SDS011;38420;53.150;6.370;2023-03-31T15:33:04;5.55;;;1.70;;
52508;SDS011;38420;53.150;6.370;2023-03-31T15:35:32;7.07;;;1.63;;
52508;SDS011;38420;53.150;6.370;2023-03-31T15:38:02;7.07;;;1.63;;
52508;SDS011;38420;53.150;6.370;2023-03-31T15:40:39;6.75;;;1.40;;
52508;SDS011;38420;53.150;6.370;2023-03-31T15:43:08;5.18;;;1.58;;
52508;SDS011;38420;53.150;6.370;2023-03-31T15:48:22;7.05;;;2.00;;
52508;SDS011;38420;53.150;6.370;2023-03-31T15:53:35;5.57;;;2.22;;
52508;SDS011;38420;53.150;6.370;2023-03-31T15:56:07;6.97;;;1.48;;
52508;SDS011;38420;53.150;6.370;2023-03-31T15:58:52;8.18;;;2.38;;
52508;SDS011;38420;53.150;6.370;2023-03-31T16:01:36;8.27;;;2.38;;
52508;SDS011;38420;53.150;6.370;2023-03-31T16:04:08;7.38;;;2.20;;
52508;SDS011;38420;53.150;6.370;2023-03-31T16:14:25;5.05;;;2.00;;
52508;SDS011;38420;53.150;6.370;2023-03-31T16:17:07;6.45;;;2.25;;
52508;SDS011;38420;53.150;6.370;2023-03-31T16:19:44;8.07;;;2.10;;
52508;SDS011;38420;53.150;6.370;2023-03-31T16:22:16;6.95;;;2.03;;
52508;SDS011;38420;53.150;6.370;2023-03-31T16:24:48;6.90;;;2.20;;
52508;SDS011;38420;53.150;6.370;2023-03-31T16:27:15;8.95;;;2.65;;
52508;SDS011;38420;53.150;6.370;2023-03-31T16:29:41;9.60;;;2.50;;
52508;SDS011;38420;53.150;6.370;2023-03-31T16:34:32;11.50;;;2.53;;
52508;SDS011;38420;53.150;6.370;2023-03-31T16:36:58;10.75;;;3.15;;
52508;SDS011;38420;53.150;6.370;2023-03-31T16:39:23;10.38;;;3.55;;
52508;SDS011;38420;53.150;6.370;2023-03-31T16:41:49;7.82;;;2.63;;
52508;SDS011;38420;53.150;6.370;2023-03-31T16:44:14;8.40;;;3.50;;
52508;SDS011;38420;53.150;6.370;2023-03-31T16:46:40;9.45;;;4.90;;
52508;SDS011;38420;53.150;6.370;2023-03-31T16:49:06;10.38;;;2.95;;
52508;SDS011;38420;53.150;6.370;2023-03-31T16:51:31;7.88;;;2.60;;
52508;SDS011;38420;53.150;6.370;2023-03-31T16:53:57;10.35;;;2.67;;
52508;SDS011;38420;53.150;6.370;2023-03-31T16:56:22;9.88;;;2.17;;
52508;SDS011;38420;53.150;6.370;2023-03-31T16:58:48;10.43;;;3.15;;
52508;SDS011;38420;53.150;6.370;2023-03-31T17:01:13;10.68;;;2.72;;
52508;SDS011;38420;53.150;6.370;2023-03-31T17:03:39;9.32;;;2.75;;
52508;SDS011;38420;53.150;6.370;2023-03-31T17:06:09;9.25;;;3.35;;
52508;SDS011;38420;53.150;6.370;2023-03-31T17:08:36;8.57;;;2.72;;
52508;SDS011;38420;53.150;6.370;2023-03-31T17:11:05;8.02;;;2.45;;
52508;SDS011;38420;53.150;6.370;2023-03-31T17:13:34;7.53;;;2.75;;
52508;SDS011;38420;53.150;6.370;2023-03-31T17:16:01;9.80;;;3.97;;
52508;SDS011;38420;53.150;6.370;2023-03-31T17:18:27;12.18;;;2.78;;
52508;SDS011;38420;53.150;6.370;2023-03-31T17:20:52;9.15;;;3.35;;
52508;SDS011;38420;53.150;6.370;2023-03-31T17:23:19;16.15;;;6.55;;
52508;SDS011;38420;53.150;6.370;2023-03-31T17:25:46;11.02;;;4.70;;
52508;SDS011;38420;53.150;6.370;2023-03-31T17:28:16;12.45;;;4.35;;
52508;SDS011;38420;53.150;6.370;2023-03-31T17:30:42;9.32;;;4.38;;
52508;SDS011;38420;53.150;6.370;2023-03-31T17:33:09;10.95;;;5.18;;
52508;SDS011;38420;53.150;6.370;2023-03-31T17:35:38;7.97;;;2.42;;
52508;SDS011;38420;53.150;6.370;2023-03-31T17:38:03;10.13;;;2.65;;
52508;SDS011;38420;53.150;6.370;2023-03-31T17:40:29;9.73;;;2.85;;
52508;SDS011;38420;53.150;6.370;2023-03-31T17:42:58;8.25;;;3.08;;
52508;SDS011;38420;53.150;6.370;2023-03-31T17:45:25;9.65;;;3.42;;
52508;SDS011;38420;53.150;6.370;2023-03-31T17:47:51;13.35;;;2.95;;
52508;SDS011;38420;53.150;6.370;2023-03-31T17:50:17;12.57;;;3.53;;
52508;SDS011;38420;53.150;6.370;2023-03-31T17:52:43;9.18;;;3.10;;
52508;SDS011;38420;53.150;6.370;2023-03-31T17:55:09;10.52;;;2.72;;
52508;SDS011;38420;53.150;6.370;2023-03-31T17:57:35;8.50;;;2.53;;
52508;SDS011;38420;53.150;6.370;2023-03-31T18:00:02;7.88;;;2.85;;
52508;SDS011;38420;53.150;6.370;2023-03-31T18:02:28;7.22;;;1.90;;
52508;SDS011;38420;53.150;6.370;2023-03-31T18:04:54;3.50;;;0.73;;
52508;SDS011;38420;53.150;6.370;2023-03-31T18:07:20;1.55;;;0.60;;
52508;SDS011;38420;53.150;6.370;2023-03-31T18:09:47;1.70;;;0.57;;
52508;SDS011;38420;53.150;6.370;2023-03-31T18:12:13;0.80;;;0.40;;
52508;SDS011;38420;53.150;6.370;2023-03-31T18:14:38;1.30;;;0.45;;
52508;SDS011;38420;53.150;6.370;2023-03-31T18:17:04;1.90;;;0.57;;